createdAt,value
2023-04-07T00:03:00.901Z,2.55
2023-04-07T00:06:02.670Z,2.40
2023-04-07T00:09:04.341Z,2.35
2023-04-07T00:12:07.480Z,2.43
2023-04-07T00:15:10.242Z,2.41
2023-04-07T00:18:12.021Z,2.38
2023-04-07T00:21:14.184Z,2.34
2023-04-07T00:24:18.559Z,2.30
2023-04-07T00:27:30.413Z,2.48
2023-04-07T00:30:32.091Z,2.51
2023-04-07T00:33:33.747Z,2.48
2023-04-07T00:36:35.686Z,2.40
2023-04-07T00:39:37.386Z,2.34
2023-04-07T00:42:40.798Z,2.57
2023-04-07T00:45:42.652Z,2.58
2023-04-07T00:48:44.997Z,2.52
2023-04-07T00:51:46.738Z,2.37
2023-04-07T00:54:48.455Z,2.41
2023-04-07T00:57:51.723Z,2.31
2023-04-07T01:01:03.347Z,2.28
2023-04-07T01:04:09.264Z,2.56
2023-04-07T01:07:16.107Z,2.55
2023-04-07T01:10:24.140Z,2.47
2023-04-07T01:13:31.656Z,2.35
2023-04-07T01:16:37.516Z,2.51
2023-04-07T01:19:44.716Z,2.70
2023-04-07T01:22:51.002Z,2.49
2023-04-07T01:26:07.476Z,2.37
2023-04-07T01:29:38.734Z,2.43
2023-04-07T01:32:43.748Z,2.39
2023-04-07T01:35:47.629Z,2.30
2023-04-07T01:38:51.433Z,2.30
2023-04-07T01:41:54.306Z,2.24
2023-04-07T01:44:58.933Z,2.20
2023-04-07T01:48:00.707Z,2.22
2023-04-07T01:51:04.324Z,2.25
2023-04-07T01:54:07.404Z,2.30
2023-04-07T01:57:09.329Z,2.27
2023-04-07T02:00:13.774Z,2.28
2023-04-07T02:03:20.435Z,2.25
2023-04-07T02:06:27.552Z,2.27
2023-04-07T02:09:31.882Z,2.26
2023-04-07T02:12:35.233Z,2.25
2023-04-07T02:15:40.477Z,2.37
2023-04-07T02:18:43.966Z,2.34
2023-04-07T02:21:46.297Z,2.40
2023-04-07T02:24:48.279Z,2.52
2023-04-07T02:27:50.082Z,2.39
2023-04-07T02:30:53.128Z,2.34
2023-04-07T02:33:55.188Z,2.30
2023-04-07T02:36:57.045Z,2.26
2023-04-07T02:39:59.055Z,2.38
2023-04-07T02:43:00.915Z,2.40
2023-04-07T02:46:04.200Z,2.26
2023-04-07T02:49:05.933Z,2.16
2023-04-07T02:52:07.575Z,2.11
2023-04-07T02:55:10.022Z,2.07
2023-04-07T02:58:11.722Z,2.00
2023-04-07T03:01:14.829Z,2.12
2023-04-07T03:04:16.812Z,2.11
2023-04-07T03:07:18.585Z,2.26
2023-04-07T03:10:20.315Z,2.15
2023-04-07T03:13:22.035Z,2.10
2023-04-07T03:16:25.143Z,2.10
2023-04-07T03:19:27.114Z,2.21
2023-04-07T03:22:28.788Z,2.08
2023-04-07T03:25:30.725Z,2.26
2023-04-07T03:28:32.365Z,2.39
2023-04-07T03:31:35.464Z,2.16
2023-04-07T03:34:37.153Z,2.13
2023-04-07T03:37:39.136Z,2.23
2023-04-07T03:40:41.069Z,2.28
2023-04-07T03:43:42.751Z,2.26
2023-04-07T03:46:45.940Z,2.30
2023-04-07T03:49:47.656Z,2.21
2023-04-07T03:52:49.303Z,2.36
2023-04-07T03:55:51.113Z,2.25
2023-04-07T03:58:53.026Z,2.26
2023-04-07T04:01:56.174Z,2.24
2023-04-07T04:04:58.152Z,2.21
2023-04-07T04:08:00.098Z,2.34
2023-04-07T04:11:01.813Z,2.25
2023-04-07T04:14:03.442Z,2.19
2023-04-07T04:17:06.807Z,2.44
2023-04-07T04:20:09.932Z,2.23
2023-04-07T04:23:12.152Z,2.10
2023-04-07T04:26:14.107Z,2.07
2023-04-07T04:29:15.784Z,2.14
2023-04-07T04:32:19.156Z,2.09
2023-04-07T04:35:21.063Z,2.09
2023-04-07T04:38:22.719Z,2.10
2023-04-07T04:41:24.367Z,2.07
2023-04-07T04:44:26.015Z,2.13
2023-04-07T04:47:29.048Z,2.11
2023-04-07T04:50:30.734Z,2.33
2023-04-07T04:53:32.613Z,2.35
2023-04-07T04:56:34.467Z,2.35
2023-04-07T04:59:36.405Z,2.37
2023-04-07T05:02:39.708Z,2.37
2023-04-07T05:05:41.472Z,2.35
2023-04-07T05:08:43.275Z,2.34
2023-04-07T05:11:44.958Z,2.39
2023-04-07T05:14:46.935Z,2.39
2023-04-07T05:17:49.967Z,2.38
2023-04-07T05:20:51.928Z,2.40
2023-04-07T05:23:53.888Z,2.46
2023-04-07T05:26:55.711Z,2.50
2023-04-07T05:29:57.581Z,2.60
2023-04-07T05:33:00.815Z,2.69
2023-04-07T05:36:02.605Z,2.72
2023-04-07T05:39:04.634Z,2.76
2023-04-07T05:42:06.629Z,2.80
2023-04-07T05:45:10.040Z,2.97
2023-04-07T05:48:13.694Z,3.06
2023-04-07T05:51:15.389Z,3.46
2023-04-07T05:54:17.099Z,3.52
2023-04-07T05:57:18.733Z,3.47
2023-04-07T06:00:20.806Z,3.37
2023-04-07T06:03:24.017Z,3.46
2023-04-07T06:06:25.794Z,3.59
2023-04-07T06:09:27.568Z,3.69
2023-04-07T06:12:29.258Z,3.81
2023-04-07T06:15:31.235Z,3.75
2023-04-07T06:18:34.581Z,3.76
2023-04-07T06:21:36.298Z,4.04
2023-04-07T06:24:38.022Z,3.87
2023-04-07T06:27:39.831Z,3.80
2023-04-07T06:30:41.804Z,3.84
2023-04-07T06:33:45.167Z,4.11
2023-04-07T06:36:46.874Z,4.00
2023-04-07T06:39:48.757Z,4.27
2023-04-07T06:42:50.450Z,4.24
2023-04-07T06:45:52.393Z,4.28
2023-04-07T06:48:55.453Z,4.38
2023-04-07T06:51:57.344Z,4.38
2023-04-07T06:54:59.288Z,4.30
2023-04-07T06:58:01.239Z,4.41
2023-04-07T07:01:03.776Z,4.37
2023-04-07T07:04:07.075Z,4.29
2023-04-07T07:07:08.844Z,4.39
2023-04-07T07:10:10.985Z,4.53
2023-04-07T07:13:12.649Z,4.47
2023-04-07T07:16:14.436Z,4.46
2023-04-07T07:19:17.583Z,4.79
2023-04-07T07:22:19.324Z,4.76
2023-04-07T07:25:20.966Z,4.68
2023-04-07T07:28:22.693Z,4.68
2023-04-07T07:31:24.413Z,4.70
2023-04-07T07:34:27.795Z,4.76
2023-04-07T07:37:29.420Z,4.81
2023-04-07T07:40:31.186Z,4.73
2023-04-07T07:43:32.891Z,4.73
2023-04-07T07:46:34.695Z,4.72
2023-04-07T07:49:38.002Z,4.66
2023-04-07T07:52:39.924Z,4.62
2023-04-07T07:55:41.731Z,4.64
2023-04-07T07:58:43.428Z,4.72
2023-04-07T08:01:45.386Z,4.80
2023-04-07T08:04:48.784Z,4.76
2023-04-07T08:07:52.755Z,4.81
2023-04-07T08:10:55.856Z,4.87
2023-04-07T08:13:57.734Z,5.09
2023-04-07T08:16:59.439Z,5.07
2023-04-07T08:20:02.635Z,5.18
2023-04-07T08:23:04.359Z,5.17
2023-04-07T08:26:06.030Z,5.31
2023-04-07T08:29:07.929Z,5.35
2023-04-07T08:32:09.899Z,5.43
2023-04-07T08:35:13.124Z,5.39
2023-04-07T08:38:15.002Z,5.45
2023-04-07T08:41:20.202Z,5.43
2023-04-07T08:44:22.859Z,5.46
2023-04-07T08:47:26.224Z,5.53
2023-04-07T08:50:29.544Z,5.58
2023-04-07T08:53:36.265Z,5.60
2023-04-07T08:56:39.050Z,5.59
2023-04-07T08:59:42.337Z,5.61
2023-04-07T09:02:44.888Z,5.77
2023-04-07T09:05:50.336Z,5.54
2023-04-07T09:08:52.385Z,5.49
2023-04-07T09:11:54.120Z,5.22
2023-04-07T09:14:55.959Z,5.37
2023-04-07T09:17:57.743Z,5.32
2023-04-07T09:21:03.236Z,5.37
2023-04-07T09:24:21.084Z,5.51
2023-04-07T09:27:22.763Z,5.53
2023-04-07T09:30:24.696Z,5.51
2023-04-07T09:33:30.722Z,5.52
2023-04-07T09:36:41.578Z,5.58
2023-04-07T09:39:49.727Z,5.58
2023-04-07T09:42:51.416Z,5.54
2023-04-07T09:46:06.748Z,5.46
2023-04-07T09:49:08.440Z,5.51
2023-04-07T09:52:11.742Z,5.57
2023-04-07T09:55:13.904Z,5.64
2023-04-07T09:58:16.048Z,5.66
2023-04-07T10:01:18.128Z,5.63
2023-04-07T10:04:20.433Z,5.63
2023-04-07T10:07:23.473Z,5.63
2023-04-07T10:10:26.152Z,5.65
2023-04-07T10:13:28.633Z,5.71
2023-04-07T10:16:30.527Z,5.79
2023-04-07T10:19:34.470Z,5.89
2023-04-07T10:22:38.144Z,6.07
2023-04-07T10:25:40.562Z,6.40
2023-04-07T10:28:46.042Z,6.40
2023-04-07T10:31:48.126Z,6.69
2023-04-07T10:34:56.783Z,6.67
2023-04-07T10:38:13.810Z,6.69
2023-04-07T10:41:35.060Z,6.62
2023-04-07T10:44:47.473Z,6.65
2023-04-07T10:48:11.496Z,6.81
2023-04-07T10:51:19.314Z,6.71
2023-04-07T10:54:23.333Z,6.74
2023-04-07T10:57:25.123Z,6.82
2023-04-07T11:00:26.855Z,6.85
2023-04-07T11:03:29.948Z,6.96
2023-04-07T11:06:31.783Z,7.01
2023-04-07T11:09:34.906Z,7.24
2023-04-07T11:12:36.525Z,7.33
2023-04-07T11:15:40.688Z,7.42
2023-04-07T11:18:44.148Z,7.59
2023-04-07T11:21:45.829Z,7.77
2023-04-07T11:24:48.961Z,7.73
2023-04-07T11:27:51.252Z,7.71
2023-04-07T11:30:54.439Z,7.66
2023-04-07T11:33:57.593Z,7.47
2023-04-07T11:37:18.422Z,7.37
2023-04-07T11:40:34.005Z,7.36
2023-04-07T11:43:35.654Z,7.28
2023-04-07T11:46:53.323Z,7.19
2023-04-07T11:49:54.981Z,7.06
2023-04-07T11:52:56.634Z,6.94
2023-04-07T11:56:04.222Z,6.91
2023-04-07T11:59:05.994Z,6.88
2023-04-07T12:02:07.875Z,6.83
2023-04-07T12:05:10.328Z,6.80
2023-04-07T12:08:13.141Z,6.82
2023-04-07T12:11:16.837Z,6.89
2023-04-07T12:14:18.497Z,7.00
2023-04-07T12:17:21.150Z,7.21
2023-04-07T12:20:22.881Z,7.27
2023-04-07T12:23:24.649Z,7.28
2023-04-07T12:26:28.006Z,7.10
2023-04-07T12:29:29.686Z,7.43
2023-04-07T12:32:31.712Z,7.60
2023-04-07T12:35:33.418Z,7.77
2023-04-07T12:38:35.353Z,7.81
2023-04-07T12:41:38.449Z,8.01
2023-04-07T12:44:40.411Z,7.91
2023-04-07T12:47:43.183Z,7.82
2023-04-07T12:50:45.363Z,7.91
2023-04-07T12:53:47.790Z,7.98
2023-04-07T12:56:51.063Z,7.72
2023-04-07T12:59:52.855Z,7.61
2023-04-07T13:02:54.719Z,7.44
2023-04-07T13:05:56.438Z,7.29
2023-04-07T13:08:58.219Z,7.09
2023-04-07T13:12:01.510Z,7.05
2023-04-07T13:15:03.781Z,6.95
2023-04-07T13:18:05.524Z,6.83
2023-04-07T13:21:38.344Z,6.76
2023-04-07T13:24:29.008Z,6.74
2023-04-07T13:27:32.378Z,6.64
2023-04-07T13:30:34.353Z,6.57
2023-04-07T13:33:36.076Z,6.50
2023-04-07T13:36:37.769Z,6.38
2023-04-07T13:39:39.446Z,6.20
2023-04-07T13:42:43.315Z,6.10
2023-04-07T13:45:44.797Z,6.01
2023-04-07T13:48:47.807Z,5.94
2023-04-07T13:51:49.717Z,5.97
2023-04-07T13:54:51.377Z,5.97
2023-04-07T13:57:54.391Z,6.22
2023-04-07T14:00:56.085Z,6.12
2023-04-07T14:04:00.662Z,6.06
2023-04-07T14:07:02.916Z,6.05
2023-04-07T14:10:05.218Z,6.07
2023-04-07T14:13:08.309Z,5.98
2023-04-07T14:16:10.286Z,5.98
2023-04-07T14:19:11.980Z,5.91
2023-04-07T14:22:14.221Z,6.00
2023-04-07T14:25:15.869Z,5.94
2023-04-07T14:28:18.942Z,6.07
2023-04-07T14:31:20.662Z,6.01
2023-04-07T14:34:22.614Z,5.98
2023-04-07T14:37:24.314Z,5.98
2023-04-07T14:40:26.017Z,6.02
2023-04-07T14:43:29.169Z,6.11
2023-04-07T14:46:30.805Z,6.10
2023-04-07T14:49:32.992Z,6.11
2023-04-07T14:52:34.684Z,6.08
2023-04-07T14:55:36.448Z,6.17
2023-04-07T14:58:39.576Z,6.09
2023-04-07T15:01:41.606Z,6.05
2023-04-07T15:04:43.454Z,6.12
2023-04-07T15:07:45.203Z,6.13
2023-04-07T15:10:47.032Z,6.04
2023-04-07T15:13:50.297Z,6.04
2023-04-07T15:16:52.512Z,6.05
2023-04-07T15:19:54.726Z,6.00
2023-04-07T15:22:56.722Z,6.00
2023-04-07T15:25:58.451Z,5.94
2023-04-07T15:29:01.760Z,5.88
2023-04-07T15:32:03.631Z,5.87
2023-04-07T15:35:06.010Z,5.88
2023-04-07T15:38:07.722Z,5.88
2023-04-07T15:41:09.386Z,5.87
2023-04-07T15:44:17.745Z,5.82
2023-04-07T15:47:19.707Z,5.85
2023-04-07T15:50:21.504Z,5.76
2023-04-07T15:53:23.273Z,5.77
2023-04-07T15:56:25.016Z,5.77
2023-04-07T15:59:28.104Z,5.72
2023-04-07T16:02:30.152Z,5.75
2023-04-07T16:05:32.125Z,5.69
2023-04-07T16:08:33.870Z,5.64
2023-04-07T16:11:35.735Z,5.51
2023-04-07T16:14:38.801Z,5.41
2023-04-07T16:17:42.719Z,5.33
2023-04-07T16:20:44.198Z,5.33
2023-04-07T16:23:45.897Z,5.27
2023-04-07T16:26:47.951Z,5.24
2023-04-07T16:29:51.179Z,5.22
2023-04-07T16:32:52.918Z,5.18
2023-04-07T16:35:54.659Z,5.22
2023-04-07T16:38:56.344Z,5.18
2023-04-07T16:41:58.045Z,5.08
2023-04-07T16:45:01.460Z,5.08
2023-04-07T16:48:03.226Z,5.07
2023-04-07T16:51:05.170Z,5.07
2023-04-07T16:54:06.806Z,5.03
2023-04-07T16:57:08.472Z,5.04
2023-04-07T17:00:13.070Z,4.99
2023-04-07T17:03:15.709Z,5.02
2023-04-07T17:06:17.674Z,5.08
2023-04-07T17:09:19.826Z,5.04
2023-04-07T17:12:21.520Z,4.98
2023-04-07T17:15:24.497Z,4.97
2023-04-07T17:18:26.217Z,4.97
2023-04-07T17:21:27.896Z,4.92
2023-04-07T17:24:29.530Z,4.87
2023-04-07T17:27:31.336Z,4.91
2023-04-07T17:30:35.859Z,4.85
2023-04-07T17:33:37.515Z,4.87
2023-04-07T17:36:39.227Z,4.83
2023-04-07T17:39:41.364Z,4.79
2023-04-07T17:42:43.077Z,4.75
2023-04-07T17:45:46.312Z,4.75
2023-04-07T17:48:48.701Z,4.72
2023-04-07T17:51:50.345Z,4.75
2023-04-07T17:54:52.251Z,4.74
2023-04-07T17:57:53.895Z,4.70
2023-04-07T18:00:56.930Z,4.72
2023-04-07T18:03:58.662Z,4.73
2023-04-07T18:07:00.488Z,4.71
2023-04-07T18:10:02.713Z,4.66
2023-04-07T18:13:04.910Z,4.66
2023-04-07T18:16:08.241Z,4.68
2023-04-07T18:19:10.014Z,4.65
2023-04-07T18:22:11.708Z,4.67
2023-04-07T18:25:13.549Z,4.64
2023-04-07T18:28:15.229Z,4.58
2023-04-07T18:31:18.583Z,4.65
2023-04-07T18:34:20.883Z,4.64
2023-04-07T18:37:22.737Z,4.59
2023-04-07T18:40:25.023Z,4.54
2023-04-07T18:43:26.948Z,4.62
2023-04-07T18:46:30.198Z,4.52
2023-04-07T18:49:32.390Z,4.48
2023-04-07T18:52:34.041Z,4.45
2023-04-07T18:55:36.181Z,4.45
2023-04-07T18:58:38.737Z,4.41
2023-04-07T19:01:42.287Z,4.39
2023-04-07T19:04:44.342Z,4.33
2023-04-07T19:07:46.018Z,4.32
2023-04-07T19:10:48.880Z,4.28
2023-04-07T19:13:52.848Z,4.31
2023-04-07T19:16:56.454Z,4.29
2023-04-07T19:19:58.665Z,4.28
2023-04-07T19:23:00.642Z,4.25
2023-04-07T19:26:02.398Z,4.26
2023-04-07T19:29:04.042Z,4.29
2023-04-07T19:32:07.766Z,4.27
2023-04-07T19:35:10.142Z,4.25
2023-04-07T19:38:11.826Z,4.25
2023-04-07T19:41:13.545Z,4.34
2023-04-07T19:44:15.760Z,4.21
2023-04-07T19:47:18.799Z,4.19
2023-04-07T19:50:20.512Z,4.19
2023-04-07T19:53:22.434Z,4.15
2023-04-07T19:56:24.098Z,4.18
2023-04-07T19:59:25.783Z,4.14
2023-04-07T20:02:29.076Z,4.12
2023-04-07T20:05:31.223Z,4.12
2023-04-07T20:08:33.030Z,4.11
2023-04-07T20:11:35.002Z,4.07
2023-04-07T20:14:36.975Z,4.12
2023-04-07T20:17:40.239Z,4.01
2023-04-07T20:20:41.950Z,4.01
2023-04-07T20:23:43.887Z,3.99
2023-04-07T20:26:46.256Z,3.99
2023-04-07T20:29:48.214Z,3.98
2023-04-07T20:32:51.568Z,3.96
2023-04-07T20:35:53.420Z,4.02
2023-04-07T20:38:55.275Z,4.02
2023-04-07T20:41:57.263Z,4.01
2023-04-07T20:44:59.172Z,4.01
2023-04-07T20:48:02.318Z,4.06
2023-04-07T20:51:04.569Z,4.15
2023-04-07T20:54:06.276Z,4.12
2023-04-07T20:57:08.228Z,3.98
2023-04-07T21:00:10.525Z,4.03
2023-04-07T21:03:13.888Z,4.03
2023-04-07T21:06:15.928Z,4.07
2023-04-07T21:09:17.894Z,3.94
2023-04-07T21:12:19.648Z,3.89
2023-04-07T21:15:21.473Z,3.91
2023-04-07T21:18:24.650Z,3.83
2023-04-07T21:21:26.572Z,3.83
2023-04-07T21:24:28.234Z,3.83
2023-04-07T21:27:29.914Z,3.84
2023-04-07T21:30:31.573Z,3.77
2023-04-07T21:33:35.203Z,3.78
2023-04-07T21:36:36.878Z,3.76
2023-04-07T21:39:38.486Z,3.83
2023-04-07T21:42:40.189Z,3.76
2023-04-07T21:45:41.834Z,3.78
2023-04-07T21:48:45.460Z,3.74
2023-04-07T21:51:47.253Z,3.74
2023-04-07T21:54:49.176Z,3.70
2023-04-07T21:57:51.162Z,3.68
2023-04-07T22:00:53.635Z,3.73
2023-04-07T22:03:57.043Z,3.77
2023-04-07T22:06:58.942Z,3.76
2023-04-07T22:10:00.836Z,3.74
2023-04-07T22:13:02.548Z,3.84
2023-04-07T22:16:04.357Z,3.78
2023-04-07T22:19:07.748Z,3.78
2023-04-07T22:22:09.673Z,3.80
2023-04-07T22:25:11.318Z,3.76
2023-04-07T22:28:12.992Z,3.79
2023-04-07T22:31:14.712Z,3.77
2023-04-07T22:34:18.252Z,3.73
2023-04-07T22:37:20.225Z,3.70
2023-04-07T22:40:22.107Z,3.72
2023-04-07T22:43:24.347Z,3.73
2023-04-07T22:46:26.264Z,3.65
2023-04-07T22:49:29.993Z,3.67
2023-04-07T22:52:31.710Z,3.65
2023-04-07T22:55:33.384Z,3.68
2023-04-07T22:58:35.062Z,3.71
2023-04-07T23:01:36.856Z,3.68
2023-04-07T23:04:40.153Z,3.67
2023-04-07T23:07:41.864Z,3.72
2023-04-07T23:10:43.819Z,3.72
2023-04-07T23:13:45.738Z,3.72
2023-04-07T23:16:47.754Z,3.78
2023-04-07T23:19:50.763Z,3.70
2023-04-07T23:22:52.412Z,3.70
2023-04-07T23:25:54.089Z,3.63
2023-04-07T23:28:55.966Z,3.71
2023-04-07T23:31:57.766Z,3.63
2023-04-07T23:35:01.167Z,3.59
2023-04-07T23:38:02.854Z,3.69
2023-04-07T23:41:04.606Z,3.63
2023-04-07T23:44:06.239Z,3.62
2023-04-07T23:47:07.964Z,3.61
2023-04-07T23:50:11.451Z,3.65
2023-04-07T23:53:13.440Z,3.64
2023-04-07T23:56:15.086Z,3.59
2023-04-07T23:59:16.790Z,3.58
